sensor_id;sensor_type;location;lat;lon;timestamp;P1;durP1;ratioP1;P2;durP2;ratioP2
18822;SDS011;9540;51.550;7.980;2023-07-20T00:01:51;44.58;;;17.35;;
18822;SDS011;9540;51.550;7.980;2023-07-20T00:04:18;36.20;;;16.40;;
18822;SDS011;9540;51.550;7.980;2023-07-20T00:06:45;35.20;;;16.35;;
18822;SDS011;9540;51.550;7.980;2023-07-20T00:09:12;31.83;;;16.27;;
18822;SDS011;9540;51.550;7.980;2023-07-20T00:11:39;37.10;;;16.23;;
18822;SDS011;9540;51.550;7.980;2023-07-20T00:14:06;27.88;;;15.88;;
18822;SDS011;9540;51.550;7.980;2023-07-20T00:16:33;30.27;;;14.90;;
18822;SDS011;9540;51.550;7.980;2023-07-20T00:19:01;28.63;;;15.68;;
18822;SDS011;9540;51.550;7.980;2023-07-20T00:21:30;27.00;;;14.10;;
18822;SDS011;9540;51.550;7.980;2023-07-20T00:23:57;23.63;;;14.20;;
18822;SDS011;9540;51.550;7.980;2023-07-20T00:26:24;32.63;;;13.15;;
18822;SDS011;9540;51.550;7.980;2023-07-20T00:28:51;24.20;;;12.45;;
18822;SDS011;9540;51.550;7.980;2023-07-20T00:31:18;29.40;;;13.57;;
18822;SDS011;9540;51.550;7.980;2023-07-20T00:33:45;28.52;;;13.48;;
18822;SDS011;9540;51.550;7.980;2023-07-20T00:36:13;32.42;;;14.45;;
18822;SDS011;9540;51.550;7.980;2023-07-20T00:38:41;35.05;;;13.57;;
18822;SDS011;9540;51.550;7.980;2023-07-20T00:41:08;37.20;;;14.98;;
18822;SDS011;9540;51.550;7.980;2023-07-20T00:43:35;27.95;;;14.45;;
18822;SDS011;9540;51.550;7.980;2023-07-20T00:46:02;35.15;;;14.15;;
18822;SDS011;9540;51.550;7.980;2023-07-20T00:48:30;32.22;;;16.13;;
18822;SDS011;9540;51.550;7.980;2023-07-20T00:50:58;33.30;;;16.98;;
18822;SDS011;9540;51.550;7.980;2023-07-20T00:53:26;28.58;;;16.65;;
18822;SDS011;9540;51.550;7.980;2023-07-20T00:55:54;39.35;;;16.88;;
18822;SDS011;9540;51.550;7.980;2023-07-20T00:58:21;35.47;;;17.42;;
18822;SDS011;9540;51.550;7.980;2023-07-20T01:00:49;33.00;;;18.15;;
18822;SDS011;9540;51.550;7.980;2023-07-20T01:03:16;28.70;;;16.33;;
18822;SDS011;9540;51.550;7.980;2023-07-20T01:05:46;33.63;;;17.15;;
18822;SDS011;9540;51.550;7.980;2023-07-20T01:08:22;32.63;;;18.60;;
18822;SDS011;9540;51.550;7.980;2023-07-20T01:10:57;30.45;;;16.70;;
18822;SDS011;9540;51.550;7.980;2023-07-20T01:13:30;27.50;;;16.33;;
18822;SDS011;9540;51.550;7.980;2023-07-20T01:16:00;28.08;;;14.32;;
18822;SDS011;9540;51.550;7.980;2023-07-20T01:18:28;25.05;;;15.80;;
18822;SDS011;9540;51.550;7.980;2023-07-20T01:20:56;30.70;;;16.65;;
18822;SDS011;9540;51.550;7.980;2023-07-20T01:23:36;34.72;;;16.98;;
18822;SDS011;9540;51.550;7.980;2023-07-20T01:29:25;25.52;;;16.20;;
18822;SDS011;9540;51.550;7.980;2023-07-20T01:32:05;37.60;;;19.13;;
18822;SDS011;9540;51.550;7.980;2023-07-20T01:34:35;29.85;;;16.15;;
18822;SDS011;9540;51.550;7.980;2023-07-20T01:37:03;27.73;;;16.30;;
18822;SDS011;9540;51.550;7.980;2023-07-20T01:39:31;37.42;;;18.92;;
18822;SDS011;9540;51.550;7.980;2023-07-20T01:41:59;46.33;;;21.15;;
18822;SDS011;9540;51.550;7.980;2023-07-20T01:44:27;46.08;;;19.85;;
18822;SDS011;9540;51.550;7.980;2023-07-20T01:46:54;37.10;;;18.98;;
18822;SDS011;9540;51.550;7.980;2023-07-20T01:49:23;39.00;;;20.75;;
18822;SDS011;9540;51.550;7.980;2023-07-20T01:51:50;39.80;;;18.73;;
18822;SDS011;9540;51.550;7.980;2023-07-20T01:54:17;37.65;;;17.45;;
18822;SDS011;9540;51.550;7.980;2023-07-20T01:56:44;39.67;;;20.02;;
18822;SDS011;9540;51.550;7.980;2023-07-20T01:59:10;31.85;;;18.48;;
18822;SDS011;9540;51.550;7.980;2023-07-20T02:01:37;51.22;;;18.95;;
18822;SDS011;9540;51.550;7.980;2023-07-20T02:04:04;38.13;;;18.25;;
18822;SDS011;9540;51.550;7.980;2023-07-20T02:06:33;39.42;;;18.42;;
18822;SDS011;9540;51.550;7.980;2023-07-20T02:09:00;42.72;;;19.63;;
18822;SDS011;9540;51.550;7.980;2023-07-20T02:11:27;36.03;;;18.80;;
18822;SDS011;9540;51.550;7.980;2023-07-20T02:13:54;40.15;;;18.05;;
18822;SDS011;9540;51.550;7.980;2023-07-20T02:16:21;38.10;;;17.73;;
18822;SDS011;9540;51.550;7.980;2023-07-20T02:18:48;46.38;;;19.20;;
18822;SDS011;9540;51.550;7.980;2023-07-20T02:21:15;33.75;;;17.88;;
18822;SDS011;9540;51.550;7.980;2023-07-20T02:23:44;43.30;;;19.73;;
18822;SDS011;9540;51.550;7.980;2023-07-20T02:26:11;45.03;;;18.25;;
18822;SDS011;9540;51.550;7.980;2023-07-20T02:28:38;41.17;;;19.13;;
18822;SDS011;9540;51.550;7.980;2023-07-20T02:31:06;42.65;;;18.58;;
18822;SDS011;9540;51.550;7.980;2023-07-20T02:33:33;40.00;;;19.00;;
18822;SDS011;9540;51.550;7.980;2023-07-20T02:36:00;38.17;;;18.38;;
18822;SDS011;9540;51.550;7.980;2023-07-20T02:38:27;37.35;;;17.58;;
18822;SDS011;9540;51.550;7.980;2023-07-20T02:40:55;33.63;;;17.90;;
18822;SDS011;9540;51.550;7.980;2023-07-20T02:43:23;37.55;;;19.88;;
18822;SDS011;9540;51.550;7.980;2023-07-20T02:45:50;37.35;;;17.52;;
18822;SDS011;9540;51.550;7.980;2023-07-20T02:48:17;31.80;;;18.08;;
18822;SDS011;9540;51.550;7.980;2023-07-20T02:50:44;35.30;;;18.55;;
18822;SDS011;9540;51.550;7.980;2023-07-20T02:53:11;30.13;;;17.88;;
18822;SDS011;9540;51.550;7.980;2023-07-20T02:55:38;31.40;;;16.63;;
18822;SDS011;9540;51.550;7.980;2023-07-20T02:58:07;35.47;;;17.70;;
18822;SDS011;9540;51.550;7.980;2023-07-20T03:00:35;34.33;;;17.20;;
18822;SDS011;9540;51.550;7.980;2023-07-20T03:03:02;32.92;;;17.35;;
18822;SDS011;9540;51.550;7.980;2023-07-20T03:05:29;31.77;;;17.50;;
18822;SDS011;9540;51.550;7.980;2023-07-20T03:07:56;39.17;;;21.13;;
18822;SDS011;9540;51.550;7.980;2023-07-20T03:10:28;40.47;;;18.13;;
18822;SDS011;9540;51.550;7.980;2023-07-20T03:12:55;42.47;;;18.08;;
18822;SDS011;9540;51.550;7.980;2023-07-20T03:15:23;39.85;;;18.00;;
18822;SDS011;9540;51.550;7.980;2023-07-20T03:17:50;42.28;;;19.25;;
18822;SDS011;9540;51.550;7.980;2023-07-20T03:20:17;39.47;;;19.30;;
18822;SDS011;9540;51.550;7.980;2023-07-20T03:22:44;35.67;;;18.30;;
18822;SDS011;9540;51.550;7.980;2023-07-20T03:25:11;35.92;;;20.35;;
18822;SDS011;9540;51.550;7.980;2023-07-20T03:27:38;39.72;;;20.42;;
18822;SDS011;9540;51.550;7.980;2023-07-20T03:30:06;45.95;;;21.70;;
18822;SDS011;9540;51.550;7.980;2023-07-20T03:32:36;49.00;;;22.33;;
18822;SDS011;9540;51.550;7.980;2023-07-20T03:35:03;44.03;;;21.88;;
18822;SDS011;9540;51.550;7.980;2023-07-20T03:37:30;48.92;;;22.92;;
18822;SDS011;9540;51.550;7.980;2023-07-20T03:39:59;45.88;;;21.27;;
18822;SDS011;9540;51.550;7.980;2023-07-20T03:42:27;52.47;;;22.75;;
18822;SDS011;9540;51.550;7.980;2023-07-20T03:44:53;60.97;;;27.58;;
18822;SDS011;9540;51.550;7.980;2023-07-20T03:47:21;54.13;;;24.35;;
18822;SDS011;9540;51.550;7.980;2023-07-20T03:49:50;57.88;;;26.50;;
18822;SDS011;9540;51.550;7.980;2023-07-20T03:52:17;52.67;;;26.13;;
18822;SDS011;9540;51.550;7.980;2023-07-20T03:54:44;59.72;;;26.55;;
18822;SDS011;9540;51.550;7.980;2023-07-20T03:57:11;50.33;;;24.08;;
18822;SDS011;9540;51.550;7.980;2023-07-20T03:59:38;41.67;;;21.58;;
18822;SDS011;9540;51.550;7.980;2023-07-20T04:02:06;46.35;;;21.25;;
18822;SDS011;9540;51.550;7.980;2023-07-20T04:04:33;34.58;;;18.30;;
18822;SDS011;9540;51.550;7.980;2023-07-20T04:07:02;27.90;;;13.18;;
18822;SDS011;9540;51.550;7.980;2023-07-20T04:09:31;22.45;;;12.10;;
18822;SDS011;9540;51.550;7.980;2023-07-20T04:11:58;19.40;;;11.80;;
18822;SDS011;9540;51.550;7.980;2023-07-20T04:14:25;13.85;;;8.60;;
18822;SDS011;9540;51.550;7.980;2023-07-20T04:16:52;15.52;;;8.18;;
18822;SDS011;9540;51.550;7.980;2023-07-20T04:19:19;14.57;;;8.55;;
18822;SDS011;9540;51.550;7.980;2023-07-20T04:21:46;12.13;;;7.85;;
18822;SDS011;9540;51.550;7.980;2023-07-20T04:24:14;17.17;;;8.38;;
18822;SDS011;9540;51.550;7.980;2023-07-20T04:26:41;18.42;;;8.18;;
18822;SDS011;9540;51.550;7.980;2023-07-20T04:29:08;13.63;;;8.25;;
18822;SDS011;9540;51.550;7.980;2023-07-20T04:31:35;13.15;;;7.65;;
18822;SDS011;9540;51.550;7.980;2023-07-20T04:34:02;14.52;;;8.30;;
18822;SDS011;9540;51.550;7.980;2023-07-20T04:36:30;14.98;;;8.07;;
18822;SDS011;9540;51.550;7.980;2023-07-20T04:38:57;13.75;;;8.55;;
18822;SDS011;9540;51.550;7.980;2023-07-20T04:41:25;14.07;;;7.95;;
18822;SDS011;9540;51.550;7.980;2023-07-20T04:43:52;20.08;;;9.75;;
18822;SDS011;9540;51.550;7.980;2023-07-20T04:46:19;18.17;;;9.68;;
18822;SDS011;9540;51.550;7.980;2023-07-20T04:48:46;20.95;;;11.18;;
18822;SDS011;9540;51.550;7.980;2023-07-20T04:51:14;21.90;;;11.07;;
18822;SDS011;9540;51.550;7.980;2023-07-20T04:53:42;28.17;;;11.85;;
18822;SDS011;9540;51.550;7.980;2023-07-20T04:56:09;15.98;;;9.65;;
18822;SDS011;9540;51.550;7.980;2023-07-20T04:58:37;20.88;;;10.73;;
18822;SDS011;9540;51.550;7.980;2023-07-20T05:01:05;24.30;;;11.48;;
18822;SDS011;9540;51.550;7.980;2023-07-20T05:03:31;21.35;;;10.98;;
18822;SDS011;9540;51.550;7.980;2023-07-20T05:05:58;20.77;;;11.88;;
18822;SDS011;9540;51.550;7.980;2023-07-20T05:08:26;30.48;;;13.43;;
18822;SDS011;9540;51.550;7.980;2023-07-20T05:10:53;26.17;;;15.82;;
18822;SDS011;9540;51.550;7.980;2023-07-20T05:13:19;29.38;;;15.57;;
18822;SDS011;9540;51.550;7.980;2023-07-20T05:15:50;29.15;;;16.02;;
18822;SDS011;9540;51.550;7.980;2023-07-20T05:18:17;32.83;;;16.95;;
18822;SDS011;9540;51.550;7.980;2023-07-20T05:20:45;38.63;;;17.17;;
18822;SDS011;9540;51.550;7.980;2023-07-20T05:23:12;43.47;;;18.98;;
18822;SDS011;9540;51.550;7.980;2023-07-20T05:25:39;42.75;;;20.33;;
18822;SDS011;9540;51.550;7.980;2023-07-20T05:28:07;46.58;;;20.40;;
18822;SDS011;9540;51.550;7.980;2023-07-20T05:30:34;40.70;;;20.27;;
18822;SDS011;9540;51.550;7.980;2023-07-20T05:33:02;35.72;;;18.23;;
18822;SDS011;9540;51.550;7.980;2023-07-20T05:35:28;31.40;;;18.55;;
18822;SDS011;9540;51.550;7.980;2023-07-20T05:37:55;35.75;;;17.98;;
18822;SDS011;9540;51.550;7.980;2023-07-20T05:40:22;45.78;;;17.30;;
18822;SDS011;9540;51.550;7.980;2023-07-20T05:42:49;34.33;;;18.25;;
18822;SDS011;9540;51.550;7.980;2023-07-20T05:45:17;31.77;;;16.23;;
18822;SDS011;9540;51.550;7.980;2023-07-20T05:47:44;35.03;;;17.58;;
18822;SDS011;9540;51.550;7.980;2023-07-20T05:50:12;33.53;;;16.30;;
18822;SDS011;9540;51.550;7.980;2023-07-20T05:52:40;32.13;;;17.15;;
18822;SDS011;9540;51.550;7.980;2023-07-20T05:55:07;46.92;;;20.85;;
18822;SDS011;9540;51.550;7.980;2023-07-20T05:57:34;40.45;;;20.27;;
18822;SDS011;9540;51.550;7.980;2023-07-20T06:00:05;41.80;;;19.77;;
18822;SDS011;9540;51.550;7.980;2023-07-20T06:02:33;36.95;;;17.75;;
18822;SDS011;9540;51.550;7.980;2023-07-20T06:05:00;39.55;;;20.00;;
18822;SDS011;9540;51.550;7.980;2023-07-20T06:07:29;37.95;;;18.58;;
18822;SDS011;9540;51.550;7.980;2023-07-20T06:09:56;49.05;;;23.05;;
18822;SDS011;9540;51.550;7.980;2023-07-20T06:12:23;52.63;;;21.80;;
18822;SDS011;9540;51.550;7.980;2023-07-20T06:14:50;41.50;;;20.95;;
18822;SDS011;9540;51.550;7.980;2023-07-20T06:17:17;47.83;;;19.95;;
18822;SDS011;9540;51.550;7.980;2023-07-20T06:19:44;46.08;;;21.20;;
18822;SDS011;9540;51.550;7.980;2023-07-20T06:22:11;37.10;;;19.20;;
18822;SDS011;9540;51.550;7.980;2023-07-20T06:24:39;45.30;;;20.25;;
18822;SDS011;9540;51.550;7.980;2023-07-20T06:27:06;36.35;;;18.98;;
18822;SDS011;9540;51.550;7.980;2023-07-20T06:29:33;35.50;;;18.92;;
18822;SDS011;9540;51.550;7.980;2023-07-20T06:32:00;35.30;;;19.90;;
18822;SDS011;9540;51.550;7.980;2023-07-20T06:34:27;27.77;;;16.95;;
18822;SDS011;9540;51.550;7.980;2023-07-20T06:36:54;31.58;;;17.02;;
18822;SDS011;9540;51.550;7.980;2023-07-20T06:39:21;23.17;;;13.90;;
18822;SDS011;9540;51.550;7.980;2023-07-20T06:41:50;26.60;;;16.02;;
18822;SDS011;9540;51.550;7.980;2023-07-20T06:44:17;27.58;;;14.77;;
18822;SDS011;9540;51.550;7.980;2023-07-20T06:46:44;26.00;;;15.00;;
18822;SDS011;9540;51.550;7.980;2023-07-20T06:49:15;22.17;;;12.55;;
18822;SDS011;9540;51.550;7.980;2023-07-20T06:51:50;20.50;;;12.60;;
18822;SDS011;9540;51.550;7.980;2023-07-20T06:54:17;21.70;;;13.20;;
18822;SDS011;9540;51.550;7.980;2023-07-20T06:56:44;17.20;;;11.98;;
18822;SDS011;9540;51.550;7.980;2023-07-20T06:59:12;18.10;;;10.68;;
18822;SDS011;9540;51.550;7.980;2023-07-20T07:01:39;21.60;;;13.15;;
18822;SDS011;9540;51.550;7.980;2023-07-20T07:04:06;16.65;;;10.70;;
18822;SDS011;9540;51.550;7.980;2023-07-20T07:06:34;19.20;;;12.57;;
18822;SDS011;9540;51.550;7.980;2023-07-20T07:09:02;15.90;;;11.02;;
18822;SDS011;9540;51.550;7.980;2023-07-20T07:11:30;14.13;;;9.38;;
18822;SDS011;9540;51.550;7.980;2023-07-20T07:13:57;14.48;;;9.68;;
18822;SDS011;9540;51.550;7.980;2023-07-20T07:16:25;13.43;;;8.10;;
18822;SDS011;9540;51.550;7.980;2023-07-20T07:18:52;12.50;;;7.53;;
18822;SDS011;9540;51.550;7.980;2023-07-20T07:21:20;11.68;;;8.68;;
18822;SDS011;9540;51.550;7.980;2023-07-20T07:23:47;11.93;;;7.70;;
18822;SDS011;9540;51.550;7.980;2023-07-20T07:26:14;7.53;;;6.72;;
18822;SDS011;9540;51.550;7.980;2023-07-20T07:28:41;9.23;;;7.32;;
18822;SDS011;9540;51.550;7.980;2023-07-20T07:31:08;13.70;;;8.80;;
18822;SDS011;9540;51.550;7.980;2023-07-20T07:33:37;10.55;;;8.18;;
18822;SDS011;9540;51.550;7.980;2023-07-20T07:36:04;11.60;;;8.50;;
18822;SDS011;9540;51.550;7.980;2023-07-20T07:38:31;9.38;;;5.40;;
18822;SDS011;9540;51.550;7.980;2023-07-20T07:41:00;5.10;;;4.60;;
18822;SDS011;9540;51.550;7.980;2023-07-20T07:43:26;4.97;;;4.47;;
18822;SDS011;9540;51.550;7.980;2023-07-20T07:45:54;7.60;;;5.68;;
18822;SDS011;9540;51.550;7.980;2023-07-20T07:48:22;6.82;;;5.47;;
18822;SDS011;9540;51.550;7.980;2023-07-20T07:50:51;9.38;;;5.05;;
18822;SDS011;9540;51.550;7.980;2023-07-20T07:53:20;6.53;;;5.07;;
18822;SDS011;9540;51.550;7.980;2023-07-20T07:55:47;6.43;;;5.47;;
18822;SDS011;9540;51.550;7.980;2023-07-20T07:58:14;5.22;;;4.72;;
18822;SDS011;9540;51.550;7.980;2023-07-20T08:00:41;5.43;;;4.20;;
18822;SDS011;9540;51.550;7.980;2023-07-20T08:03:08;4.15;;;3.70;;
18822;SDS011;9540;51.550;7.980;2023-07-20T08:05:35;4.72;;;4.25;;
18822;SDS011;9540;51.550;7.980;2023-07-20T08:08:04;8.93;;;3.63;;
18822;SDS011;9540;51.550;7.980;2023-07-20T08:10:31;7.50;;;4.25;;
18822;SDS011;9540;51.550;7.980;2023-07-20T08:12:58;4.07;;;3.72;;
18822;SDS011;9540;51.550;7.980;2023-07-20T08:15:25;4.30;;;4.00;;
18822;SDS011;9540;51.550;7.980;2023-07-20T08:17:52;3.60;;;3.30;;
18822;SDS011;9540;51.550;7.980;2023-07-20T08:20:19;3.80;;;3.42;;
18822;SDS011;9540;51.550;7.980;2023-07-20T08:22:51;4.15;;;3.45;;
18822;SDS011;9540;51.550;7.980;2023-07-20T08:25:19;3.67;;;3.38;;
18822;SDS011;9540;51.550;7.980;2023-07-20T08:27:47;4.22;;;3.72;;
18822;SDS011;9540;51.550;7.980;2023-07-20T08:30:14;4.47;;;3.42;;
18822;SDS011;9540;51.550;7.980;2023-07-20T08:32:41;4.38;;;3.78;;
18822;SDS011;9540;51.550;7.980;2023-07-20T08:35:08;3.90;;;3.60;;
18822;SDS011;9540;51.550;7.980;2023-07-20T08:37:35;5.13;;;3.47;;
18822;SDS011;9540;51.550;7.980;2023-07-20T08:40:02;5.95;;;3.88;;
18822;SDS011;9540;51.550;7.980;2023-07-20T08:42:35;3.42;;;3.22;;
18822;SDS011;9540;51.550;7.980;2023-07-20T08:45:04;3.50;;;3.20;;
18822;SDS011;9540;51.550;7.980;2023-07-20T08:47:34;2.72;;;2.53;;
18822;SDS011;9540;51.550;7.980;2023-07-20T08:50:02;3.38;;;3.08;;
18822;SDS011;9540;51.550;7.980;2023-07-20T08:52:33;6.63;;;2.90;;
18822;SDS011;9540;51.550;7.980;2023-07-20T08:55:01;3.85;;;2.95;;
18822;SDS011;9540;51.550;7.980;2023-07-20T08:57:29;2.60;;;2.40;;
18822;SDS011;9540;51.550;7.980;2023-07-20T09:00:01;2.50;;;2.30;;
18822;SDS011;9540;51.550;7.980;2023-07-20T09:02:31;3.55;;;2.75;;
18822;SDS011;9540;51.550;7.980;2023-07-20T09:05:06;4.38;;;3.28;;
18822;SDS011;9540;51.550;7.980;2023-07-20T09:07:35;4.05;;;3.30;;
18822;SDS011;9540;51.550;7.980;2023-07-20T09:10:03;2.50;;;2.40;;
18822;SDS011;9540;51.550;7.980;2023-07-20T09:12:31;5.65;;;4.55;;
18822;SDS011;9540;51.550;7.980;2023-07-20T09:14:58;4.93;;;3.78;;
18822;SDS011;9540;51.550;7.980;2023-07-20T09:17:27;3.83;;;3.55;;
18822;SDS011;9540;51.550;7.980;2023-07-20T09:19:54;3.35;;;3.15;;
18822;SDS011;9540;51.550;7.980;2023-07-20T09:22:21;3.72;;;3.42;;
18822;SDS011;9540;51.550;7.980;2023-07-20T09:24:48;3.30;;;3.00;;
18822;SDS011;9540;51.550;7.980;2023-07-20T09:27:19;4.55;;;3.10;;
18822;SDS011;9540;51.550;7.980;2023-07-20T09:29:47;4.88;;;4.57;;
18822;SDS011;9540;51.550;7.980;2023-07-20T09:32:17;4.30;;;3.85;;
18822;SDS011;9540;51.550;7.980;2023-07-20T09:34:46;4.75;;;4.35;;
18822;SDS011;9540;51.550;7.980;2023-07-20T09:37:13;4.80;;;4.40;;
18822;SDS011;9540;51.550;7.980;2023-07-20T09:39:43;5.63;;;5.05;;
18822;SDS011;9540;51.550;7.980;2023-07-20T09:42:11;4.95;;;4.55;;
18822;SDS011;9540;51.550;7.980;2023-07-20T09:44:38;4.95;;;4.55;;
18822;SDS011;9540;51.550;7.980;2023-07-20T09:47:13;5.32;;;4.82;;
18822;SDS011;9540;51.550;7.980;2023-07-20T10:06:36;5.47;;;5.07;;
18822;SDS011;9540;51.550;7.980;2023-07-20T10:09:09;3.95;;;3.47;;
18822;SDS011;9540;51.550;7.980;2023-07-20T10:11:40;3.53;;;3.30;;
18822;SDS011;9540;51.550;7.980;2023-07-20T10:14:09;4.15;;;3.30;;
18822;SDS011;9540;51.550;7.980;2023-07-20T10:16:42;2.85;;;2.65;;
18822;SDS011;9540;51.550;7.980;2023-07-20T10:19:15;4.35;;;2.70;;
18822;SDS011;9540;51.550;7.980;2023-07-20T10:21:51;2.45;;;2.35;;
18822;SDS011;9540;51.550;7.980;2023-07-20T10:24:23;3.45;;;3.15;;
18822;SDS011;9540;51.550;7.980;2023-07-20T10:26:51;2.95;;;2.65;;
18822;SDS011;9540;51.550;7.980;2023-07-20T10:29:18;2.85;;;2.65;;
18822;SDS011;9540;51.550;7.980;2023-07-20T10:31:45;2.20;;;2.10;;
18822;SDS011;9540;51.550;7.980;2023-07-20T10:34:13;2.70;;;2.50;;
18822;SDS011;9540;51.550;7.980;2023-07-20T10:36:43;2.20;;;2.00;;
18822;SDS011;9540;51.550;7.980;2023-07-20T10:39:22;2.03;;;1.88;;
18822;SDS011;9540;51.550;7.980;2023-07-20T10:41:59;2.10;;;1.85;;
18822;SDS011;9540;51.550;7.980;2023-07-20T10:44:27;1.65;;;1.40;;
18822;SDS011;9540;51.550;7.980;2023-07-20T10:46:58;1.80;;;1.70;;
18822;SDS011;9540;51.550;7.980;2023-07-20T10:49:26;1.00;;;1.00;;
18822;SDS011;9540;51.550;7.980;2023-07-20T10:51:56;1.20;;;1.10;;
18822;SDS011;9540;51.550;7.980;2023-07-20T10:54:35;0.93;;;0.93;;
18822;SDS011;9540;51.550;7.980;2023-07-20T10:57:21;1.33;;;1.23;;
18822;SDS011;9540;51.550;7.980;2023-07-20T10:59:50;1.20;;;0.88;;
18822;SDS011;9540;51.550;7.980;2023-07-20T11:02:17;1.20;;;1.00;;
18822;SDS011;9540;51.550;7.980;2023-07-20T11:04:45;0.70;;;0.70;;
18822;SDS011;9540;51.550;7.980;2023-07-20T11:07:17;1.35;;;1.00;;
18822;SDS011;9540;51.550;7.980;2023-07-20T11:10:13;0.90;;;0.90;;
18822;SDS011;9540;51.550;7.980;2023-07-20T11:12:41;1.10;;;0.70;;
18822;SDS011;9540;51.550;7.980;2023-07-20T11:15:34;4.20;;;0.80;;
18822;SDS011;9540;51.550;7.980;2023-07-20T11:18:11;1.20;;;0.60;;
18822;SDS011;9540;51.550;7.980;2023-07-20T11:20:39;0.82;;;0.60;;
18822;SDS011;9540;51.550;7.980;2023-07-20T11:23:07;0.70;;;0.70;;
18822;SDS011;9540;51.550;7.980;2023-07-20T11:25:40;0.70;;;0.70;;
18822;SDS011;9540;51.550;7.980;2023-07-20T11:28:07;0.90;;;0.90;;
18822;SDS011;9540;51.550;7.980;2023-07-20T11:30:36;1.15;;;0.80;;
18822;SDS011;9540;51.550;7.980;2023-07-20T11:33:03;0.60;;;0.60;;
18822;SDS011;9540;51.550;7.980;2023-07-20T11:35:31;1.65;;;0.70;;
18822;SDS011;9540;51.550;7.980;2023-07-20T11:38:01;0.55;;;0.55;;
18822;SDS011;9540;51.550;7.980;2023-07-20T11:40:29;0.60;;;0.60;;
18822;SDS011;9540;51.550;7.980;2023-07-20T11:42:57;1.02;;;1.02;;
18822;SDS011;9540;51.550;7.980;2023-07-20T11:45:25;0.63;;;0.63;;
18822;SDS011;9540;51.550;7.980;2023-07-20T11:47:52;0.80;;;0.60;;
18822;SDS011;9540;51.550;7.980;2023-07-20T11:50:19;0.63;;;0.60;;
18822;SDS011;9540;51.550;7.980;2023-07-20T11:52:46;0.80;;;0.80;;
18822;SDS011;9540;51.550;7.980;2023-07-20T11:55:14;0.43;;;0.43;;
18822;SDS011;9540;51.550;7.980;2023-07-20T11:57:41;1.00;;;1.00;;
18822;SDS011;9540;51.550;7.980;2023-07-20T12:00:28;0.68;;;0.68;;
18822;SDS011;9540;51.550;7.980;2023-07-20T12:02:56;0.70;;;0.70;;
18822;SDS011;9540;51.550;7.980;2023-07-20T12:05:26;0.50;;;0.50;;
18822;SDS011;9540;51.550;7.980;2023-07-20T12:07:54;0.55;;;0.50;;
18822;SDS011;9540;51.550;7.980;2023-07-20T12:10:24;0.50;;;0.50;;
18822;SDS011;9540;51.550;7.980;2023-07-20T12:12:52;0.50;;;0.50;;
18822;SDS011;9540;51.550;7.980;2023-07-20T12:15:21;0.70;;;0.70;;
18822;SDS011;9540;51.550;7.980;2023-07-20T12:17:49;0.80;;;0.80;;
18822;SDS011;9540;51.550;7.980;2023-07-20T12:20:24;0.68;;;0.60;;
18822;SDS011;9540;51.550;7.980;2023-07-20T12:22:51;0.63;;;0.63;;
18822;SDS011;9540;51.550;7.980;2023-07-20T12:25:19;1.23;;;0.57;;
18822;SDS011;9540;51.550;7.980;2023-07-20T12:27:47;2.28;;;0.65;;
18822;SDS011;9540;51.550;7.980;2023-07-20T12:30:15;1.33;;;0.75;;
18822;SDS011;9540;51.550;7.980;2023-07-20T12:32:43;0.70;;;0.60;;
18822;SDS011;9540;51.550;7.980;2023-07-20T12:35:10;2.22;;;0.65;;
18822;SDS011;9540;51.550;7.980;2023-07-20T12:37:39;3.95;;;0.68;;
18822;SDS011;9540;51.550;7.980;2023-07-20T12:40:07;0.85;;;0.63;;
18822;SDS011;9540;51.550;7.980;2023-07-20T12:42:36;2.20;;;0.57;;
18822;SDS011;9540;51.550;7.980;2023-07-20T12:45:04;0.85;;;0.50;;
18822;SDS011;9540;51.550;7.980;2023-07-20T12:47:31;0.60;;;0.60;;
18822;SDS011;9540;51.550;7.980;2023-07-20T12:50:00;0.70;;;0.70;;
18822;SDS011;9540;51.550;7.980;2023-07-20T12:52:29;2.38;;;0.95;;
18822;SDS011;9540;51.550;7.980;2023-07-20T12:54:56;1.10;;;0.63;;
18822;SDS011;9540;51.550;7.980;2023-07-20T12:57:24;0.93;;;0.70;;
18822;SDS011;9540;51.550;7.980;2023-07-20T12:59:50;0.73;;;0.73;;
18822;SDS011;9540;51.550;7.980;2023-07-20T13:02:17;2.63;;;0.60;;
18822;SDS011;9540;51.550;7.980;2023-07-20T13:04:44;1.33;;;0.45;;
18822;SDS011;9540;51.550;7.980;2023-07-20T13:07:13;0.57;;;0.57;;
18822;SDS011;9540;51.550;7.980;2023-07-20T13:09:39;1.88;;;0.60;;
18822;SDS011;9540;51.550;7.980;2023-07-20T13:12:07;6.10;;;0.73;;
18822;SDS011;9540;51.550;7.980;2023-07-20T13:14:34;0.60;;;0.60;;
18822;SDS011;9540;51.550;7.980;2023-07-20T13:17:02;0.55;;;0.55;;
18822;SDS011;9540;51.550;7.980;2023-07-20T13:19:29;0.52;;;0.52;;
18822;SDS011;9540;51.550;7.980;2023-07-20T13:21:56;0.40;;;0.40;;
18822;SDS011;9540;51.550;7.980;2023-07-20T13:24:24;1.90;;;0.73;;
18822;SDS011;9540;51.550;7.980;2023-07-20T13:26:51;0.68;;;0.60;;
18822;SDS011;9540;51.550;7.980;2023-07-20T13:29:18;0.60;;;0.60;;
18822;SDS011;9540;51.550;7.980;2023-07-20T13:31:45;0.60;;;0.60;;
18822;SDS011;9540;51.550;7.980;2023-07-20T13:34:12;0.70;;;0.70;;
18822;SDS011;9540;51.550;7.980;2023-07-20T13:36:39;0.70;;;0.70;;
18822;SDS011;9540;51.550;7.980;2023-07-20T13:39:06;0.60;;;0.60;;
18822;SDS011;9540;51.550;7.980;2023-07-20T13:41:35;0.60;;;0.60;;
18822;SDS011;9540;51.550;7.980;2023-07-20T13:44:02;1.83;;;0.65;;
18822;SDS011;9540;51.550;7.980;2023-07-20T13:46:29;3.78;;;1.02;;
18822;SDS011;9540;51.550;7.980;2023-07-20T13:48:56;0.60;;;0.60;;
18822;SDS011;9540;51.550;7.980;2023-07-20T13:51:23;0.70;;;0.70;;
18822;SDS011;9540;51.550;7.980;2023-07-20T13:53:50;0.80;;;0.70;;
18822;SDS011;9540;51.550;7.980;2023-07-20T13:56:17;0.70;;;0.70;;
18822;SDS011;9540;51.550;7.980;2023-07-20T13:58:46;0.60;;;0.60;;
18822;SDS011;9540;51.550;7.980;2023-07-20T14:01:13;0.65;;;0.60;;
18822;SDS011;9540;51.550;7.980;2023-07-20T14:03:40;1.00;;;0.65;;
18822;SDS011;9540;51.550;7.980;2023-07-20T14:06:07;0.70;;;0.70;;
18822;SDS011;9540;51.550;7.980;2023-07-20T14:08:34;1.90;;;0.80;;
18822;SDS011;9540;51.550;7.980;2023-07-20T14:11:01;1.40;;;0.82;;
18822;SDS011;9540;51.550;7.980;2023-07-20T14:13:27;2.78;;;0.65;;
18822;SDS011;9540;51.550;7.980;2023-07-20T14:15:56;2.30;;;0.70;;
18822;SDS011;9540;51.550;7.980;2023-07-20T14:18:23;2.88;;;0.70;;
18822;SDS011;9540;51.550;7.980;2023-07-20T14:20:50;1.48;;;0.85;;
18822;SDS011;9540;51.550;7.980;2023-07-20T14:23:17;1.48;;;0.95;;
18822;SDS011;9540;51.550;7.980;2023-07-20T14:25:44;1.00;;;0.70;;
18822;SDS011;9540;51.550;7.980;2023-07-20T14:28:11;0.60;;;0.60;;
18822;SDS011;9540;51.550;7.980;2023-07-20T14:30:38;0.77;;;0.70;;
18822;SDS011;9540;51.550;7.980;2023-07-20T14:33:06;2.47;;;0.63;;
18822;SDS011;9540;51.550;7.980;2023-07-20T14:35:33;0.65;;;0.63;;
18822;SDS011;9540;51.550;7.980;2023-07-20T14:38:01;2.55;;;1.00;;
18822;SDS011;9540;51.550;7.980;2023-07-20T14:40:28;0.68;;;0.68;;
18822;SDS011;9540;51.550;7.980;2023-07-20T14:42:55;0.90;;;0.90;;
18822;SDS011;9540;51.550;7.980;2023-07-20T14:45:22;1.08;;;0.80;;
18822;SDS011;9540;51.550;7.980;2023-07-20T14:47:49;0.80;;;0.80;;
18822;SDS011;9540;51.550;7.980;2023-07-20T14:50:20;0.70;;;0.70;;
18822;SDS011;9540;51.550;7.980;2023-07-20T14:52:47;2.58;;;0.80;;
18822;SDS011;9540;51.550;7.980;2023-07-20T14:55:14;0.80;;;0.80;;
18822;SDS011;9540;51.550;7.980;2023-07-20T14:57:42;1.65;;;0.90;;
18822;SDS011;9540;51.550;7.980;2023-07-20T15:00:09;0.52;;;0.52;;
18822;SDS011;9540;51.550;7.980;2023-07-20T15:02:37;0.70;;;0.70;;
18822;SDS011;9540;51.550;7.980;2023-07-20T15:05:06;0.70;;;0.70;;
18822;SDS011;9540;51.550;7.980;2023-07-20T15:07:35;0.70;;;0.70;;
18822;SDS011;9540;51.550;7.980;2023-07-20T15:10:02;2.35;;;0.85;;
18822;SDS011;9540;51.550;7.980;2023-07-20T15:12:30;0.73;;;0.73;;
18822;SDS011;9540;51.550;7.980;2023-07-20T15:15:03;2.47;;;0.77;;